Time,TemperatureF,DewpointF,PressureIn,WindDirection,WindDirectionDegrees,WindSpeedMPH,WindSpeedGustMPH,Humidity,HourlyPrecipIn,Conditions,Clouds,dailyrainin,SoftwareType,DateUTC
2013-03-16 00:06:00,62.5,44.0,29.99,SW,231,2.0,-999.0,52,-99.99,,,0.00,weatherlink.com 1.10,2013-03-16 04:06:00,
2013-03-16 00:22:00,61.5,44.0,29.99,South,171,0.0,-999.0,54,-99.99,,,0.00,weatherlink.com 1.10,2013-03-16 04:22:00,
2013-03-16 00:37:00,60.4,44.0,29.98,SSW,195,0.0,-999.0,56,-99.99,,,0.00,weatherlink.com 1.10,2013-03-16 04:37:00,
2013-03-16 00:52:00,59.3,44.0,29.98,SSW,195,0.0,-999.0,58,-99.99,,,0.00,weatherlink.com 1.10,2013-03-16 04:52:00,
2013-03-16 01:07:00,58.2,44.0,29.98,SSW,199,0.0,-999.0,60,-99.99,,,0.00,weatherlink.com 1.10,2013-03-16 05:07:00,
2013-03-16 01:22:00,57.3,44.0,29.98,SSW,199,0.0,-999.0,62,-99.99,,,0.00,weatherlink.com 1.10,2013-03-16 05:22:00,
2013-03-16 01:37:00,56.2,44.0,29.98,SSW,211,3.0,-999.0,65,-99.99,,,0.00,weatherlink.com 1.10,2013-03-16 05:37:00,
2013-03-16 01:52:00,55.9,44.0,29.98,WSW,256,4.0,-999.0,65,-99.99,,,0.00,weatherlink.com 1.10,2013-03-16 05:52:00,
2013-03-16 02:07:00,57.9,44.0,29.98,WSW,239,2.0,-999.0,61,-99.99,,,0.00,weatherlink.com 1.10,2013-03-16 06:07:00,
2013-03-16 02:22:00,58.6,44.0,29.98,WSW,242,3.0,-999.0,59,-99.99,,,0.00,weatherlink.com 1.10,2013-03-16 06:22:00,
2013-03-16 02:37:00,58.2,44.0,29.98,SW,233,2.0,-999.0,60,-99.99,,,0.00,weatherlink.com 1.10,2013-03-16 06:37:00,
2013-03-16 02:52:00,57.2,44.0,29.98,SW,233,1.0,-999.0,62,-99.99,,,0.00,weatherlink.com 1.10,2013-03-16 06:52:00,
2013-03-16 03:07:00,55.7,44.0,29.98,SW,233,3.0,-999.0,64,-99.99,,,0.00,weatherlink.com 1.10,2013-03-16 07:07:00,
2013-03-16 03:22:00,54.7,43.0,29.98,SW,233,0.0,-999.0,66,-99.99,,,0.00,weatherlink.com 1.10,2013-03-16 07:22:00,
2013-03-16 03:37:00,54.1,43.0,29.98,SW,233,0.0,-999.0,67,-99.99,,,0.00,weatherlink.com 1.10,2013-03-16 07:37:00,
2013-03-16 03:52:00,53.3,43.0,29.98,SW,233,0.0,-999.0,69,-99.99,,,0.00,weatherlink.com 1.10,2013-03-16 07:52:00,
2013-03-16 04:07:00,52.6,43.0,29.97,SW,233,0.0,-999.0,70,-99.99,,,0.00,weatherlink.com 1.10,2013-03-16 08:07:00,
2013-03-16 04:22:00,52.0,43.0,29.97,SW,233,0.0,-999.0,72,-99.99,,,0.00,weatherlink.com 1.10,2013-03-16 08:22:00,
2013-03-16 04:37:00,51.1,43.0,29.97,SW,233,0.0,-999.0,75,-99.99,,,0.00,weatherlink.com 1.10,2013-03-16 08:37:00,
2013-03-16 04:52:00,50.2,43.0,29.97,SW,233,0.0,-999.0,76,-99.99,,,0.00,weatherlink.com 1.10,2013-03-16 08:52:00,
2013-03-16 05:07:00,49.7,43.0,29.98,SW,233,1.0,-999.0,77,-99.99,,,0.00,weatherlink.com 1.10,2013-03-16 09:07:00,
2013-03-16 05:22:00,49.4,43.0,29.98,SW,233,0.0,-999.0,78,-99.99,,,0.00,weatherlink.com 1.10,2013-03-16 09:22:00,
2013-03-16 05:37:00,49.0,43.0,29.98,SW,233,1.0,-999.0,80,-99.99,,,0.00,weatherlink.com 1.10,2013-03-16 09:37:00,
2013-03-16 05:52:00,48.7,43.0,29.97,SW,233,1.0,-999.0,80,-99.99,,,0.00,weatherlink.com 1.10,2013-03-16 09:52:00,
2013-03-16 06:07:00,48.5,43.0,29.98,SW,233,1.0,-999.0,81,-99.99,,,0.00,weatherlink.com 1.10,2013-03-16 10:07:00,
2013-03-16 06:22:00,48.1,43.0,29.98,SW,233,0.0,-999.0,81,-99.99,,,0.00,weatherlink.com 1.10,2013-03-16 10:22:00,
2013-03-16 06:37:00,47.8,43.0,29.99,SW,233,0.0,-999.0,82,-99.99,,,0.00,weatherlink.com 1.10,2013-03-16 10:37:00,
2013-03-16 06:52:00,47.2,42.0,29.99,SW,233,0.0,-999.0,83,-99.99,,,0.00,weatherlink.com 1.10,2013-03-16 10:52:00,
2013-03-16 07:08:00,46.8,42.0,29.99,SW,233,0.0,-999.0,84,-99.99,,,0.00,weatherlink.com 1.10,2013-03-16 11:08:00,
2013-03-16 07:23:00,46.4,42.0,30.00,SW,233,0.0,-999.0,85,-99.99,,,0.00,weatherlink.com 1.10,2013-03-16 11:23:00,
2013-03-16 07:38:00,46.0,42.0,30.00,SW,233,0.0,-999.0,86,-99.99,,,0.00,weatherlink.com 1.10,2013-03-16 11:38:00,
2013-03-16 07:53:00,45.5,42.0,30.00,SW,233,0.0,-999.0,86,-99.99,,,0.00,weatherlink.com 1.10,2013-03-16 11:53:00,
2013-03-16 08:08:00,45.3,42.0,30.00,SW,233,0.0,-999.0,87,-99.99,,,0.00,weatherlink.com 1.10,2013-03-16 12:08:00,
2013-03-16 08:23:00,45.2,42.0,30.00,SW,233,1.0,-999.0,87,-99.99,,,0.00,weatherlink.com 1.10,2013-03-16 12:23:00,
2013-03-16 08:38:00,45.2,42.0,30.00,SW,233,1.0,-999.0,87,-99.99,,,0.00,weatherlink.com 1.10,2013-03-16 12:38:00,
2013-03-16 08:53:00,45.6,42.0,30.00,SW,233,0.0,-999.0,88,-99.99,,,0.00,weatherlink.com 1.10,2013-03-16 12:53:00,
2013-03-16 09:08:00,47.5,44.0,30.00,SSW,210,5.0,-999.0,86,-99.99,,,0.00,weatherlink.com 1.10,2013-03-16 13:08:00,
2013-03-16 09:23:00,52.1,45.0,30.00,WSW,255,0.0,-999.0,77,-99.99,,,0.00,weatherlink.com 1.10,2013-03-16 13:23:00,
2013-03-16 09:38:00,55.1,46.0,30.00,South,189,3.0,-999.0,71,-99.99,,,0.00,weatherlink.com 1.10,2013-03-16 13:38:00,
2013-03-16 09:53:00,56.8,45.0,30.00,WSW,258,2.0,-999.0,64,-99.99,,,0.00,weatherlink.com 1.10,2013-03-16 13:53:00,
2013-03-16 10:08:00,57.7,45.0,30.00,SSW,210,0.0,-999.0,63,-99.99,,,0.00,weatherlink.com 1.10,2013-03-16 14:08:00,
2013-03-16 10:23:00,59.1,45.0,29.99,WSW,254,1.0,-999.0,59,-99.99,,,0.00,weatherlink.com 1.10,2013-03-16 14:23:00,
2013-03-16 10:38:00,60.5,45.0,29.98,West,269,4.0,-999.0,56,-99.99,,,0.00,weatherlink.com 1.10,2013-03-16 14:38:00,
2013-03-16 10:53:00,62.3,44.0,29.98,SSW,203,0.0,-999.0,52,-99.99,,,0.00,weatherlink.com 1.10,2013-03-16 14:53:00,
2013-03-16 11:08:00,65.0,42.0,29.98,SW,229,3.0,-999.0,44,-99.99,,,0.00,weatherlink.com 1.10,2013-03-16 15:08:00,
2013-03-16 11:23:00,66.8,43.0,29.98,SW,233,2.0,-999.0,42,-99.99,,,0.00,weatherlink.com 1.10,2013-03-16 15:23:00,
2013-03-16 11:38:00,67.0,42.0,29.97,West,272,2.0,-999.0,41,-99.99,,,0.00,weatherlink.com 1.10,2013-03-16 15:38:00,
2013-03-16 11:53:00,67.9,44.0,29.96,SSW,204,2.0,-999.0,42,-99.99,,,0.00,weatherlink.com 1.10,2013-03-16 15:53:00,
2013-03-16 12:08:00,69.2,44.0,29.95,WSW,256,1.0,-999.0,41,-99.99,,,0.00,weatherlink.com 1.10,2013-03-16 16:08:00,
2013-03-16 12:23:00,70.7,45.0,29.95,WNW,301,6.0,-999.0,40,-99.99,,,0.00,weatherlink.com 1.10,2013-03-16 16:23:00,
2013-03-16 12:38:00,71.3,46.0,29.94,NW,314,6.0,-999.0,41,-99.99,,,0.00,weatherlink.com 1.10,2013-03-16 16:38:00,
2013-03-16 12:53:00,72.8,46.0,29.94,West,276,5.0,-999.0,39,-99.99,,,0.00,weatherlink.com 1.10,2013-03-16 16:53:00,
2013-03-16 13:08:00,73.1,46.0,29.93,West,280,8.0,-999.0,38,-99.99,,,0.00,weatherlink.com 1.10,2013-03-16 17:08:00,
2013-03-16 13:23:00,73.8,47.0,29.93,WNW,286,8.0,-999.0,38,-99.99,,,0.00,weatherlink.com 1.10,2013-03-16 17:23:00,
2013-03-16 13:38:00,73.6,46.0,29.92,WNW,285,8.0,-999.0,38,-99.99,,,0.00,weatherlink.com 1.10,2013-03-16 17:38:00,
2013-03-16 13:53:00,74.3,46.0,29.92,West,266,12.0,-999.0,37,-99.99,,,0.00,weatherlink.com 1.10,2013-03-16 17:53:00,
2013-03-16 14:08:00,75.5,47.0,29.91,NW,313,4.0,-999.0,36,-99.99,,,0.00,weatherlink.com 1.10,2013-03-16 18:08:00,
2013-03-16 14:23:00,75.6,46.0,29.91,WSW,247,5.0,-999.0,35,-99.99,,,0.00,weatherlink.com 1.10,2013-03-16 18:23:00,
2013-03-16 14:38:00,75.2,46.0,29.91,WSW,249,5.0,-999.0,35,-99.99,,,0.00,weatherlink.com 1.10,2013-03-16 18:38:00,
2013-03-16 14:54:00,75.2,45.0,29.89,SSW,208,4.0,-999.0,34,-99.99,,,0.00,weatherlink.com 1.10,2013-03-16 18:54:00,
2013-03-16 15:08:00,75.5,44.0,29.89,SW,231,8.0,-999.0,32,-99.99,,,0.00,weatherlink.com 1.10,2013-03-16 19:08:00,
2013-03-16 15:24:00,74.9,42.0,29.88,SW,222,8.0,-999.0,31,-99.99,,,0.00,weatherlink.com 1.10,2013-03-16 19:24:00,
2013-03-16 15:39:00,77.4,42.0,29.88,SSW,198,9.0,-999.0,28,-99.99,,,0.00,weatherlink.com 1.10,2013-03-16 19:39:00,
2013-03-16 15:54:00,75.9,40.0,29.87,SW,229,4.0,-999.0,28,-99.99,,,0.00,weatherlink.com 1.10,2013-03-16 19:54:00,
2013-03-16 16:09:00,76.9,40.0,29.87,WNW,285,8.0,-999.0,27,-99.99,,,0.00,weatherlink.com 1.10,2013-03-16 20:09:00,
2013-03-16 16:24:00,75.9,40.0,29.87,West,281,9.0,-999.0,27,-99.99,,,0.00,weatherlink.com 1.10,2013-03-16 20:24:00,
2013-03-16 16:39:00,77.7,40.0,29.87,West,272,9.0,-999.0,26,-99.99,,,0.00,weatherlink.com 1.10,2013-03-16 20:39:00,
2013-03-16 16:54:00,76.4,41.0,29.86,WSW,239,6.0,-999.0,28,-99.99,,,0.00,weatherlink.com 1.10,2013-03-16 20:54:00,
2013-03-16 17:09:00,76.6,41.0,29.86,WSW,243,2.0,-999.0,28,-99.99,,,0.00,weatherlink.com 1.10,2013-03-16 21:09:00,
2013-03-16 17:24:00,77.2,41.0,29.86,SW,230,5.0,-999.0,27,-99.99,,,0.00,weatherlink.com 1.10,2013-03-16 21:24:00,
2013-03-16 17:39:00,77.1,41.0,29.87,SSW,210,1.0,-999.0,27,-99.99,,,0.00,weatherlink.com 1.10,2013-03-16 21:39:00,
2013-03-16 17:54:00,77.3,41.0,29.86,NNW,334,11.0,-999.0,27,-99.99,,,0.00,weatherlink.com 1.10,2013-03-16 21:54:00,
2013-03-16 18:09:00,76.9,42.0,29.87,South,189,5.0,-999.0,29,-99.99,,,0.00,weatherlink.com 1.10,2013-03-16 22:09:00,
2013-03-16 18:24:00,75.7,42.0,29.87,West,278,2.0,-999.0,30,-99.99,,,0.00,weatherlink.com 1.10,2013-03-16 22:24:00,
2013-03-16 18:39:00,75.7,42.0,29.87,WNW,290,4.0,-999.0,30,-99.99,,,0.00,weatherlink.com 1.10,2013-03-16 22:39:00,
2013-03-16 18:54:00,74.4,43.0,29.87,WSW,254,2.0,-999.0,32,-99.99,,,0.00,weatherlink.com 1.10,2013-03-16 22:54:00,
2013-03-16 19:09:00,73.2,43.0,29.88,WSW,250,0.0,-999.0,34,-99.99,,,0.00,weatherlink.com 1.10,2013-03-16 23:09:00,
2013-03-16 19:24:00,72.4,43.0,29.88,West,280,4.0,-999.0,35,-99.99,,,0.00,weatherlink.com 1.10,2013-03-16 23:24:00,
2013-03-16 19:39:00,71.7,43.0,29.89,West,270,0.0,-999.0,36,-99.99,,,0.00,weatherlink.com 1.10,2013-03-16 23:39:00,
2013-03-16 19:54:00,70.8,43.0,29.89,West,262,2.0,-999.0,37,-99.99,,,0.00,weatherlink.com 1.10,2013-03-16 23:54:00,
2013-03-16 20:09:00,69.7,44.0,29.90,WSW,247,0.0,-999.0,39,-99.99,,,0.00,weatherlink.com 1.10,2013-03-17 00:09:00,
2013-03-16 20:24:00,68.8,43.0,29.90,WSW,244,0.0,-999.0,40,-99.99,,,0.00,weatherlink.com 1.10,2013-03-17 00:24:00,
2013-03-16 20:39:00,67.6,44.0,29.90,WSW,243,1.0,-999.0,42,-99.99,,,0.00,weatherlink.com 1.10,2013-03-17 00:39:00,
2013-03-16 20:54:00,66.0,44.0,29.90,WSW,237,1.0,-999.0,46,-99.99,,,0.00,weatherlink.com 1.10,2013-03-17 00:54:00,
2013-03-16 21:09:00,65.1,44.0,29.91,WSW,242,1.0,-999.0,46,-99.99,,,0.00,weatherlink.com 1.10,2013-03-17 01:09:00,
2013-03-16 21:24:00,64.1,44.0,29.91,WSW,242,1.0,-999.0,49,-99.99,,,0.00,weatherlink.com 1.10,2013-03-17 01:24:00,
2013-03-16 21:39:00,62.5,44.0,29.91,WSW,244,3.0,-999.0,51,-99.99,,,0.00,weatherlink.com 1.10,2013-03-17 01:39:00,
2013-03-16 21:54:00,62.6,44.0,29.91,SSW,213,3.0,-999.0,51,-99.99,,,0.00,weatherlink.com 1.10,2013-03-17 01:54:00,
2013-03-16 22:09:00,63.3,44.0,29.91,SW,226,2.0,-999.0,49,-99.99,,,0.00,weatherlink.com 1.10,2013-03-17 02:09:00,
2013-03-16 22:24:00,64.3,44.0,29.93,WSW,248,4.0,-999.0,48,-99.99,,,0.00,weatherlink.com 1.10,2013-03-17 02:24:00,
2013-03-16 22:39:00,64.5,44.0,29.93,West,259,1.0,-999.0,47,-99.99,,,0.00,weatherlink.com 1.10,2013-03-17 02:39:00,
2013-03-16 22:54:00,63.8,44.0,29.94,West,266,0.0,-999.0,49,-99.99,,,0.00,weatherlink.com 1.10,2013-03-17 02:54:00,
2013-03-16 23:09:00,63.1,44.0,29.94,WSW,241,2.0,-999.0,50,-99.99,,,0.00,weatherlink.com 1.10,2013-03-17 03:09:00,
2013-03-16 23:24:00,62.6,44.0,29.95,WSW,241,1.0,-999.0,51,-99.99,,,0.00,weatherlink.com 1.10,2013-03-17 03:24:00,
2013-03-16 23:39:00,62.0,44.0,29.95,WNW,285,0.0,-999.0,52,-99.99,,,0.00,weatherlink.com 1.10,2013-03-17 03:39:00,
2013-03-16 23:54:00,61.2,45.0,29.96,WNW,285,0.0,-999.0,55,-99.99,,,0.00,weatherlink.com 1.10,2013-03-17 03:54:00,